Time;durP1;ratioP1;P1;durP2;ratioP2;P2;SDS_P1;SDS_P2;PMS_P1;PMS_P2;Temp;Humidity;BMP_temperature;BMP_pressure;BME280_temperature;BME280_humidity;BME280_pressure;Samples;Min_cycle;Max_cycle;Signal;HPM_P1;HPM_P2
2023/12/18 05:14:38;;;;;;;3.90;2.60;;;;;;;;;;20827042;22;20276;-84
2023/12/18 05:24:40;;;;;;;3.70;2.33;;;;;;;;;;20880011;28;20237;-82
2023/12/18 05:44:56;;;;;;;3.37;2.53;;;;;;;;;;21090325;27;20585;-72
2023/12/18 05:54:57;;;;;;;3.07;1.90;;;;;;;;;;20991733;28;20281;-72
2023/12/18 06:04:59;;;;;;;3.63;2.57;;;2.00;99.90;;;;;;20998489;28;20202;-71
2023/12/18 06:15:02;;;;;;;3.57;2.33;;;;;;;;;;20967491;28;20263;-71
2023/12/18 06:25:05;;;;;;;3.20;2.03;;;2.80;99.90;;;;;;20977353;28;20259;-71
2023/12/18 06:35:07;;;;;;;3.03;1.97;;;;;;;;;;20974774;28;20239;-72
2023/12/18 06:45:09;;;;;;;4.27;2.70;;;;;;;;;;20970600;28;20188;-72
2023/12/18 06:55:11;;;;;;;4.77;2.77;;;;;;;;;;20905169;28;20268;-72
2023/12/18 07:05:16;;;;;;;3.73;2.27;;;;;;;;;;20913519;28;20656;-72
2023/12/18 07:15:17;;;;;;;4.13;2.87;;;;;;;;;;20935363;28;20194;-72
2023/12/18 07:25:20;;;;;;;3.87;2.37;;;;;;;;;;20954755;28;20213;-72
2023/12/18 07:35:22;;;;;;;6.07;4.43;;;;;;;;;;20875823;28;20271;-71
2023/12/18 07:45:23;;;;;;;4.13;2.73;;;;;;;;;;20923281;28;20266;-71
2023/12/18 07:55:25;;;;;;;2.67;1.90;;;;;;;;;;20930756;28;20375;-70
2023/12/18 08:05:28;;;;;;;3.03;2.33;;;;;;;;;;20930778;28;20241;-69
2023/12/18 08:15:30;;;;;;;4.10;2.97;;;;;;;;;;20910502;28;20731;-70
2023/12/18 08:25:32;;;;;;;3.47;2.70;;;;;;;;;;20918204;28;20217;-70
2023/12/18 08:35:34;;;;;;;1.60;1.23;;;;;;;;;;20927321;28;20849;-70
2023/12/18 08:45:36;;;;;;;2.77;1.90;;;;;;;;;;20885815;28;20217;-70
2023/12/18 08:55:39;;;;;;;3.33;2.13;;;1.60;99.90;;;;;;20874219;28;20209;-70
2023/12/18 09:05:41;;;;;;;2.50;1.70;;;;;;;;;;20883001;28;20673;-70
2023/12/18 09:15:42;;;;;;;4.27;2.77;;;;;;;;;;20875542;28;20230;-70
2023/12/18 09:25:45;;;;;;;3.47;2.53;;;;;;;;;;20898884;28;20260;-70
2023/12/18 09:35:47;;;;;;;3.73;2.13;;;;;;;;;;20891447;28;20290;-70
2023/12/18 09:45:49;;;;;;;3.13;2.10;;;2.00;99.90;;;;;;20882824;28;20692;-70
2023/12/18 09:55:54;;;;;;;4.07;2.37;;;;;;;;;;20915178;28;20205;-70
2023/12/18 10:05:55;;;;;;;3.90;2.07;;;;;;;;;;20921485;28;20272;-70
2023/12/18 10:15:58;;;;;;;5.03;2.57;;;;;;;;;;20878520;28;20291;-70
2023/12/18 10:26:02;;;;;;;3.70;2.43;;;2.20;99.90;;;;;;20926399;28;20310;-70
2023/12/18 10:36:06;;;;;;;2.40;1.87;;;;;;;;;;20931637;28;20220;-70
2023/12/18 10:46:10;;;;;;;3.60;2.23;;;;;;;;;;20917638;28;20225;-71
2023/12/18 10:56:14;;;;;;;3.97;2.17;;;2.40;99.90;;;;;;20912656;28;20214;-70
2023/12/18 11:06:16;;;;;;;3.07;2.37;;;;;;;;;;20911079;28;20609;-70
2023/12/18 11:16:18;;;;;;;5.10;1.90;;;;;;;;;;20925535;28;20217;-70
2023/12/18 11:26:21;;;;;;;2.77;1.80;;;;;;;;;;20937405;28;20255;-71
2023/12/18 11:36:23;;;;;;;4.73;2.60;;;;;;;;;;20927890;28;20225;-70
2023/12/18 11:46:25;;;;;;;4.87;2.20;;;3.50;99.90;;;;;;20923724;22;20278;-83
2023/12/18 11:56:28;;;;;;;3.47;2.50;;;;;;;;;;20930491;28;20218;-83
2023/12/18 12:06:30;;;;;;;6.03;2.10;;;;;;;;;;20993906;28;20270;-83
2023/12/18 12:16:33;;;;;;;2.93;1.93;;;;;;;;;;20982611;28;20209;-83
2023/12/18 12:26:34;;;;;;;3.03;1.90;;;;;;;;;;20935399;28;20217;-84
2023/12/18 12:36:36;;;;;;;3.13;1.97;;;;;;;;;;20944178;28;20297;-83
2023/12/18 12:46:39;;;;;;;3.10;1.93;;;;;;;;;;20947430;28;20221;-83
2023/12/18 12:56:40;;;;;;;3.37;2.17;;;4.50;99.90;;;;;;20944727;28;20222;-83
2023/12/18 13:06:42;;;;;;;3.30;2.00;;;;;;;;;;20930487;28;20766;-82
2023/12/18 13:16:44;;;;;;;3.50;1.70;;;;;;;;;;20978796;28;20225;-83
2023/12/18 13:26:46;;;;;;;3.50;1.93;;;;;;;;;;20936592;28;20298;-84
2023/12/18 13:36:48;;;;;;;2.77;1.97;;;;;;;;;;20971125;28;20302;-83
2023/12/18 13:46:50;;;;;;;3.70;2.47;;;4.20;99.90;;;;;;20982918;28;20783;-83
2023/12/18 13:56:52;;;;;;;4.73;2.70;;;;;;;;;;20972948;28;20589;-83
2023/12/18 14:06:54;;;;;;;4.33;2.50;;;;;;;;;;20947352;28;20237;-83
2023/12/18 14:16:56;;;;;;;4.60;2.50;;;;;;;;;;20970785;28;20213;-83
2023/12/18 14:26:58;;;;;;;3.80;2.40;;;;;;;;;;20953853;28;20217;-83
2023/12/18 14:37:03;;;;;;;3.83;2.73;;;;;;;;;;20956501;28;20260;-83
2023/12/18 14:47:05;;;;;;;3.90;2.60;;;;;;;;;;20956150;28;20286;-83
2023/12/18 14:57:06;;;;;;;3.53;2.53;;;;;;;;;;20959009;28;20205;-82
2023/12/18 15:07:08;;;;;;;4.33;2.73;;;;;;;;;;20970704;28;20221;-82
2023/12/18 15:17:10;;;;;;;4.00;2.30;;;;;;;;;;21000411;28;20243;-83
2023/12/18 15:27:11;;;;;;;3.87;2.67;;;;;;;;;;20959243;28;20689;-81
2023/12/18 15:37:14;;;;;;;3.93;2.40;;;;;;;;;;20932120;28;20258;-81
2023/12/18 15:47:16;;;;;;;4.03;2.67;;;3.40;99.90;;;;;;20915075;28;20279;-82
2023/12/18 15:57:23;;;;;;;4.13;3.27;;;;;;;;;;20945227;28;20209;-82
2023/12/18 16:07:24;;;;;;;5.77;4.40;;;;;;;;;;20962237;28;20270;-82
2023/12/18 16:17:26;;;;;;;2.73;2.10;;;;;;;;;;20930605;28;20266;-80
2023/12/18 16:27:28;;;;;;;3.47;2.53;;;;;;;;;;20962084;28;20646;-81
2023/12/18 16:37:30;;;;;;;3.77;2.90;;;;;;;;;;20930530;28;20790;-81
2023/12/18 16:47:32;;;;;;;4.40;3.10;;;;;;;;;;20932164;28;20282;-81
2023/12/18 16:57:33;;;;;;;3.53;2.73;;;;;;;;;;20973175;28;20697;-83
2023/12/18 17:07:35;;;;;;;4.20;3.00;;;;;;;;;;20950393;28;20286;-82
2023/12/18 17:17:37;;;;;;;8.40;3.53;;;;;;;;;;20937054;28;20209;-82
2023/12/18 17:27:38;;;;;;;4.60;3.60;;;;;;;;;;20956289;28;20259;-83
2023/12/18 17:37:40;;;;;;;8.27;4.60;;;;;;;;;;20856220;28;20217;-83
2023/12/18 17:47:42;;;;;;;5.83;3.73;;;;;;;;;;20957752;28;20232;-83
2023/12/18 17:57:44;;;;;;;4.33;3.50;;;;;;;;;;20810669;28;20236;-83
2023/12/18 18:07:46;;;;;;;5.03;3.50;;;;;;;;;;19622270;29;20238;-82
2023/12/18 18:17:48;;;;;;;3.67;3.10;;;;;;;;;;19146315;30;20710;-83
2023/12/18 18:27:50;;;;;;;4.03;2.97;;;;;;;;;;19160673;30;20241;-83
2023/12/18 18:37:51;;;;;;;4.70;3.27;;;;;;;;;;19153756;30;20230;-82
2023/12/18 18:47:53;;;;;;;4.70;3.50;;;;;;;;;;19155184;30;20233;-81
2023/12/18 18:57:55;;;;;;;4.20;3.10;;;;;;;;;;19147177;30;20278;-82
2023/12/18 19:07:57;;;;;;;4.80;3.50;;;;;;;;;;19571241;29;1113924;-84
2023/12/18 19:17:59;;;;;;;4.90;2.43;;;;;;;;;;19791802;29;20293;-82
2023/12/18 19:28:01;;;;;;;3.90;2.23;;;;;;;;;;19773953;29;20254;-85
2023/12/18 19:38:03;;;;;;;4.00;2.17;;;;;;;;;;19760483;29;20578;-85
2023/12/18 19:48:04;;;;;;;3.23;2.30;;;;;;;;;;19756671;30;20227;-84
2023/12/18 19:58:06;;;;;;;3.00;2.33;;;;;;;;;;19757510;30;20223;-83
2023/12/18 20:08:08;;;;;;;4.27;2.30;;;;;;;;;;19976004;29;20229;-85
2023/12/18 20:29:41;;;;;;;4.13;3.10;;;;;;;;;;20093546;29;20254;-82
2023/12/18 20:39:43;;;;;;;2.47;2.00;;;;;;;;;;20054179;29;20217;-83
2023/12/18 20:49:45;;;;;;;3.23;2.17;;;;;;;;;;20025938;29;20228;-82
2023/12/18 20:59:47;;;;;;;3.30;2.30;;;;;;;;;;20070540;29;20253;-82
2023/12/18 21:09:50;;;;;;;2.97;1.83;;;;;;;;;;20567716;28;20239;-82
2023/12/18 21:19:51;;;;;;;2.63;1.77;;;;;;;;;;20745825;28;20207;-83
2023/12/18 21:29:54;;;;;;;3.40;2.57;;;;;;;;;;20736788;28;20285;-83
2023/12/18 21:39:55;;;;;;;1.30;1.10;;;;;;;;;;20705941;28;20265;-82
2023/12/18 21:49:57;;;;;;;2.87;2.17;;;;;;;;;;20745385;28;20223;-84
2023/12/18 21:59:59;;;;;;;3.60;2.50;;;;;;;;;;20705947;28;20749;-85
2023/12/18 22:10:03;;;;;;;2.90;1.87;;;;;;;;;;20733832;28;20226;-85
2023/12/18 22:20:07;;;;;;;3.17;2.40;;;;;;;;;;20720570;28;20758;-84
2023/12/18 22:30:10;;;;;;;4.07;2.27;;;;;;;;;;20771150;28;20301;-84
2023/12/18 22:40:12;;;;;;;4.43;2.60;;;;;;;;;;20725690;28;20285;-84
2023/12/18 22:50:14;;;;;;;2.93;2.23;;;;;;;;;;20729075;28;20739;-82
2023/12/18 23:00:22;;;;;;;3.73;2.90;;;;;;;;;;20723262;28;20215;-83
2023/12/18 23:10:24;;;;;;;4.30;2.43;;;;;;;;;;20873707;28;20288;-83
2023/12/18 23:20:26;;;;;;;3.57;2.00;;;;;;;;;;20881054;28;20216;-82
2023/12/18 23:30:28;;;;;;;1.93;1.43;;;;;;;;;;20903798;28;20642;-83
2023/12/18 23:40:30;;;;;;;2.90;1.70;;;;;;;;;;20861949;28;20236;-82
2023/12/18 23:50:31;;;;;;;2.27;1.43;;;;;;;;;;20852790;28;20272;-83
